createdAt,value
2022-08-12T00:00:34.463Z,1.00
2022-08-12T00:06:04.096Z,0.98
2022-08-12T00:11:27.362Z,0.82
2022-08-12T00:16:49.656Z,1.40
2022-08-12T00:22:11.057Z,1.20
2022-08-12T00:27:43.598Z,1.48
2022-08-12T00:33:08.534Z,1.15
2022-08-12T00:38:31.679Z,1.10
2022-08-12T00:43:36.579Z,0.90
2022-08-12T00:48:42.800Z,0.70
2022-08-12T00:53:46.476Z,0.93
2022-08-12T00:58:52.574Z,0.93
2022-08-12T01:04:26.252Z,1.10
2022-08-12T01:09:50.407Z,0.80
2022-08-12T01:14:55.612Z,1.17
2022-08-12T01:20:06.186Z,0.95
2022-08-12T01:25:13.691Z,0.80
2022-08-12T01:30:17.527Z,1.05
2022-08-12T01:35:22.866Z,1.23
2022-08-12T01:40:36.731Z,1.00
2022-08-12T01:45:55.789Z,1.00
2022-08-12T01:51:06.700Z,0.95
2022-08-12T01:56:14.670Z,1.10
2022-08-12T02:01:21.263Z,1.30
2022-08-12T02:06:48.452Z,1.20
2022-08-12T02:12:04.610Z,1.17
2022-08-12T02:17:55.105Z,1.20
2022-08-12T02:22:50.826Z,1.42
2022-08-12T02:27:57.839Z,1.10
2022-08-12T02:33:04.613Z,0.88
2022-08-12T02:38:11.199Z,1.37
2022-08-12T02:43:23.560Z,1.30
2022-08-12T02:48:30.227Z,0.98
2022-08-12T02:53:35.804Z,1.10
2022-08-12T02:58:45.331Z,1.20
2022-08-12T03:03:54.002Z,1.25
2022-08-12T03:09:00.791Z,1.27
2022-08-12T03:14:07.177Z,1.00
2022-08-12T03:19:13.938Z,1.10
2022-08-12T03:24:18.965Z,1.50
2022-08-12T03:29:30.314Z,1.40
2022-08-12T03:34:36.594Z,1.27
2022-08-12T03:39:45.231Z,1.40
2022-08-12T03:45:16.557Z,1.65
2022-08-12T03:50:39.840Z,1.17
2022-08-12T03:56:01.864Z,1.40
2022-08-12T04:01:07.270Z,1.77
2022-08-12T04:06:11.814Z,1.27
2022-08-12T04:16:39.370Z,1.35
2022-08-12T04:22:01.919Z,1.00
2022-08-12T04:27:09.567Z,1.70
2022-08-12T04:32:15.709Z,1.35
2022-08-12T04:37:19.464Z,1.25
2022-08-12T04:42:23.908Z,1.23
2022-08-12T04:47:29.308Z,1.27
2022-08-12T04:52:34.959Z,1.50
2022-08-12T04:57:38.716Z,1.73
2022-08-12T05:02:43.979Z,1.50
2022-08-12T05:07:54.287Z,1.25
2022-08-12T05:13:01.085Z,1.62
2022-08-12T05:18:19.470Z,1.52
2022-08-12T05:23:24.138Z,1.48
2022-08-12T05:28:30.347Z,1.95
2022-08-12T05:33:37.675Z,1.45
2022-08-12T05:39:00.533Z,1.73
2022-08-12T05:44:06.469Z,1.42
2022-08-12T05:49:11.397Z,1.40
2022-08-12T05:54:16.423Z,1.40
2022-08-12T05:59:21.727Z,1.50
2022-08-12T06:04:26.647Z,1.45
2022-08-12T06:09:30.962Z,1.92
2022-08-12T06:14:37.801Z,1.95
2022-08-12T06:20:27.625Z,1.80
2022-08-12T06:30:18.539Z,1.35
2022-08-12T06:35:49.110Z,1.62
2022-08-12T06:41:15.128Z,1.52
2022-08-12T06:46:19.480Z,1.65
2022-08-12T06:51:24.600Z,1.35
2022-08-12T06:56:59.762Z,1.62
2022-08-12T07:01:52.289Z,1.97
2022-08-12T07:06:57.372Z,1.93
2022-08-12T07:12:01.205Z,1.50
2022-08-12T07:17:06.165Z,2.03
2022-08-12T07:22:13.492Z,1.60
2022-08-12T07:27:17.464Z,1.55
2022-08-12T07:32:24.545Z,1.42
2022-08-12T07:37:35.135Z,1.87
2022-08-12T07:42:39.462Z,1.85
2022-08-12T07:47:43.885Z,1.62
2022-08-12T07:52:49.509Z,1.65
2022-08-12T07:57:57.950Z,1.80
2022-08-12T08:03:02.239Z,1.27
2022-08-12T08:08:16.215Z,1.50
2022-08-12T08:13:20.711Z,1.35
2022-08-12T08:18:27.534Z,1.20
2022-08-12T08:23:46.985Z,1.37
2022-08-12T08:29:00.655Z,1.30
2022-08-12T08:34:47.342Z,1.27
2022-08-12T08:39:31.956Z,1.02
2022-08-12T08:44:38.746Z,1.23
2022-08-12T08:49:42.590Z,1.00
2022-08-12T08:54:48.791Z,0.52
2022-08-12T08:59:52.396Z,1.23
2022-08-12T09:05:12.013Z,1.35
2022-08-12T09:10:31.228Z,0.80
2022-08-12T09:15:38.958Z,0.90
2022-08-12T09:20:45.729Z,0.73
2022-08-12T09:25:55.893Z,0.88
2022-08-12T09:31:00.252Z,0.90
2022-08-12T09:36:05.477Z,0.57
2022-08-12T09:42:10.017Z,0.65
2022-08-12T09:46:34.948Z,1.02
2022-08-12T09:51:44.070Z,0.98
2022-08-12T09:57:00.362Z,0.93
2022-08-12T10:02:42.705Z,0.75
2022-08-12T10:07:39.363Z,0.70
2022-08-12T10:13:07.285Z,0.47
2022-08-12T10:18:14.423Z,0.90
2022-08-12T10:23:19.072Z,0.73
2022-08-12T10:29:02.883Z,1.08
2022-08-12T10:34:14.851Z,1.20
2022-08-12T10:40:01.272Z,0.90
2022-08-12T10:45:01.925Z,0.80
2022-08-12T10:50:29.704Z,0.90
2022-08-12T10:55:31.142Z,0.85
2022-08-12T11:00:55.343Z,1.30
2022-08-12T11:07:07.910Z,0.95
2022-08-12T11:12:34.792Z,0.70
2022-08-12T11:17:43.964Z,0.85
2022-08-12T11:22:24.106Z,0.90
2022-08-12T11:27:28.737Z,1.15
2022-08-12T11:32:38.452Z,0.80
2022-08-12T11:37:57.840Z,0.85
2022-08-12T11:43:18.673Z,0.70
2022-08-12T11:48:26.640Z,0.85
2022-08-12T11:53:57.136Z,0.80
2022-08-12T12:04:29.048Z,0.60
2022-08-12T12:09:52.535Z,1.05
2022-08-12T12:15:00.488Z,0.80
2022-08-12T12:20:13.902Z,0.80
2022-08-12T12:25:19.691Z,0.73
2022-08-12T12:30:30.010Z,0.77
2022-08-12T12:36:18.947Z,0.73
2022-08-12T12:40:59.635Z,0.80
2022-08-12T12:46:19.155Z,0.90
2022-08-12T12:52:06.747Z,0.62
2022-08-12T12:56:50.221Z,0.95
2022-08-12T13:01:53.873Z,0.85
2022-08-12T13:06:59.050Z,0.80
2022-08-12T13:12:08.213Z,1.08
2022-08-12T13:17:14.547Z,0.85
2022-08-12T13:22:21.027Z,0.80
2022-08-12T13:27:35.037Z,0.62
2022-08-12T13:32:40.501Z,0.75
2022-08-12T13:37:54.782Z,0.80
2022-08-12T13:43:01.904Z,1.08
2022-08-12T13:48:07.506Z,0.60
2022-08-12T13:53:23.707Z,0.57
2022-08-12T13:58:33.098Z,0.75
2022-08-12T14:03:51.242Z,0.50
2022-08-12T14:08:56.881Z,0.93
2022-08-12T14:14:05.342Z,0.62
2022-08-12T14:19:22.203Z,0.95
2022-08-12T14:24:41.064Z,1.00
2022-08-12T14:30:05.082Z,0.70
2022-08-12T14:35:11.025Z,0.80
2022-08-12T14:40:18.177Z,0.98
2022-08-12T14:45:23.016Z,0.75
2022-08-12T14:50:37.564Z,0.98
2022-08-12T15:01:33.377Z,0.80
2022-08-12T15:06:43.527Z,0.80
2022-08-12T15:11:55.424Z,0.98
2022-08-12T15:17:07.082Z,0.80
2022-08-12T15:22:39.459Z,0.82
